Time;durP1;ratioP1;P1;durP2;ratioP2;P2;SDS_P1;SDS_P2;PMS_P1;PMS_P2;Temp;Humidity;BMP_temperature;BMP_pressure;BME280_temperature;BME280_humidity;BME280_pressure;Samples;Min_cycle;Max_cycle;Signal;HPM_P1;HPM_P2
2021/07/15 00:00:27;;;;;;;14.98;12.28;;;;;;;23.06;72.72;99484.98;1730518;82;21049;-70
2021/07/15 00:02:54;;;;;;;17.52;12.07;;;;;;;23.05;72.75;99485.55;1747621;81;21011;-70
2021/07/15 00:05:20;;;;;;;14.28;12.13;;;;;;;23.03;72.92;99485.09;1742751;81;21039;-70
2021/07/15 00:07:47;;;;;;;18.10;12.95;;;;;;;23.03;72.98;99487.06;1747971;82;20943;-70
2021/07/15 00:10:21;;;;;;;16.45;13.55;;;;;;;22.99;72.98;99486.20;1747025;81;21594;-70
2021/07/15 00:12:50;;;;;;;15.45;12.80;;;;;;;22.92;73.07;99488.19;1747399;82;20963;-70
2021/07/15 00:15:21;;;;;;;13.75;12.20;;;;;;;22.91;73.27;99489.38;1745479;81;21013;-70
2021/07/15 00:17:49;;;;;;;16.57;12.35;;;;;;;22.92;73.33;99493.74;1745971;82;20942;-70
2021/07/15 00:20:17;;;;;;;13.70;12.30;;;;;;;22.93;73.24;99484.84;1747285;81;21045;-70
2021/07/15 00:22:44;;;;;;;14.90;11.93;;;;;;;22.94;73.03;99487.27;1743117;82;21030;-70
2021/07/15 00:25:16;;;;;;;15.72;12.00;;;;;;;22.94;72.89;99487.27;1681628;84;21143;-70
2021/07/15 00:27:43;;;;;;;15.32;12.47;;;;;;;22.90;72.75;99489.15;1736222;82;21460;-70
2021/07/15 00:30:10;;;;;;;16.25;12.07;;;;;;;22.86;72.94;99488.83;1740805;81;21046;-70
2021/07/15 00:32:37;;;;;;;16.10;11.85;;;;;;;22.83;73.05;99492.33;1742695;82;21038;-70
2021/07/15 00:35:07;;;;;;;16.37;11.93;;;;;;;22.83;72.84;99485.39;1746344;81;21568;-70
2021/07/15 00:37:33;;;;;;;13.35;11.95;;;;;;;22.80;72.78;99485.53;1743452;82;20998;-70
2021/07/15 00:40:00;;;;;;;14.13;12.63;;;;;;;22.80;72.81;99482.76;1725538;82;21055;-70
2021/07/15 00:42:28;;;;;;;14.05;11.48;;;;;;;22.76;72.84;99485.45;1738196;82;21042;-70
2021/07/15 00:44:55;;;;;;;13.18;11.50;;;;;;;22.71;72.88;99489.05;1743339;82;21086;-69
2021/07/15 00:47:21;;;;;;;13.65;11.70;;;;;;;22.69;72.89;99490.01;1741311;82;21042;-70
2021/07/15 00:49:49;;;;;;;13.28;11.50;;;;;;;22.72;72.80;99486.52;1741812;82;21093;-70
2021/07/15 00:52:16;;;;;;;12.65;10.88;;;;;;;22.70;72.77;99481.91;1744786;82;21050;-69
2021/07/15 00:54:44;;;;;;;16.80;11.93;;;;;;;22.69;72.77;99484.45;1747211;82;21478;-70
2021/07/15 00:57:11;;;;;;;15.58;12.33;;;;;;;22.66;72.71;99480.41;1744269;81;21082;-70
2021/07/15 00:59:39;;;;;;;15.05;12.07;;;;;;;22.59;72.80;99477.45;1740940;82;21054;-70
2021/07/15 01:02:07;;;;;;;15.08;12.33;;;;;;;22.56;72.88;99479.56;1719166;82;21126;-70
2021/07/15 01:04:36;;;;;;;13.43;11.60;;;;;;;22.52;72.79;99472.30;1737588;82;21037;-70
2021/07/15 01:07:04;;;;;;;14.43;11.78;;;;;;;22.59;72.91;99481.61;1745185;82;21022;-70
2021/07/15 01:09:31;;;;;;;13.18;11.97;;;;;;;22.59;72.88;99481.61;1738676;82;21498;-70
2021/07/15 01:12:26;;;;;;;13.60;12.20;;;;;;;22.58;72.93;99484.73;1733776;81;21084;-70
2021/07/15 01:15:13;;;;;;;15.32;12.78;;;;;;;22.54;73.10;99485.22;1730955;82;21039;-70
2021/07/15 01:18:06;;;;;;;13.35;11.53;;;;;;;22.53;73.18;99489.17;1738667;82;20999;-70
2021/07/15 01:21:11;;;;;;;18.65;11.90;;;;;;;22.53;73.17;99494.72;1746930;81;21049;-70
2021/07/15 01:24:19;;;;;;;13.93;12.43;;;;;;;22.52;73.04;99493.10;1711910;84;21478;-70
2021/07/15 01:27:44;;;;;;;14.33;12.47;;;;;;;22.48;73.19;99486.08;1747505;81;21007;-70
2021/07/15 01:30:22;;;;;;;13.80;11.97;;;;;;;22.43;73.41;99496.61;1744937;82;21193;-70
2021/07/15 01:33:00;;;;;;;14.45;11.73;;;;;;;22.37;73.61;99493.89;1747468;82;21085;-70
2021/07/15 01:35:44;;;;;;;17.82;13.62;;;;;;;22.36;73.72;99484.75;1737882;81;21465;-71
2021/07/15 01:38:11;;;;;;;13.25;11.85;;;;;;;22.36;73.87;99491.69;1743285;82;21643;-70
2021/07/15 01:40:49;;;;;;;13.72;12.33;;;;;;;22.35;73.82;99492.06;1722613;82;21121;-70
2021/07/15 01:43:26;;;;;;;15.28;13.22;;;;;;;22.31;73.92;99490.00;1747843;82;20994;-70
2021/07/15 01:45:53;;;;;;;14.25;12.40;;;;;;;22.22;74.06;99483.80;1745740;81;21541;-70
2021/07/15 01:48:20;;;;;;;14.50;13.00;;;;;;;22.17;74.15;99488.23;1747108;82;21557;-71
2021/07/15 01:50:47;;;;;;;15.30;12.63;;;;;;;22.16;74.19;99490.77;1731635;82;21037;-70
2021/07/15 01:53:13;;;;;;;14.73;11.97;;;;;;;22.16;74.25;99483.03;1744436;82;21497;-70
2021/07/15 01:55:40;;;;;;;15.75;11.60;;;;;;;22.14;74.38;99493.68;1746241;81;21029;-70
2021/07/15 01:58:08;;;;;;;13.70;11.63;;;;;;;22.08;74.58;99494.50;1739285;82;21526;-70
2021/07/15 02:00:35;;;;;;;15.70;11.83;;;;;;;22.03;74.83;99496.16;1739926;81;21132;-70
2021/07/15 02:03:04;;;;;;;14.55;12.10;;;;;;;22.00;75.14;99494.06;1747064;82;21014;-70
2021/07/15 02:05:32;;;;;;;15.48;12.85;;;;;;;21.99;75.21;99499.98;1741277;80;21461;-70
2021/07/15 02:07:59;;;;;;;14.38;12.40;;;;;;;21.99;75.38;99499.41;1759932;81;21030;-70
2021/07/15 02:10:26;;;;;;;15.58;12.58;;;;;;;22.01;75.56;99494.88;1757983;80;21085;-70
2021/07/15 02:12:53;;;;;;;13.25;11.75;;;;;;;22.04;75.56;99497.75;1719061;81;21003;-70
2021/07/15 02:15:25;;;;;;;14.95;12.50;;;;;;;22.06;75.62;99494.06;1760913;80;21093;-70
2021/07/15 02:17:52;;;;;;;13.53;12.18;;;;;;;22.05;75.79;99491.05;1759757;81;20982;-70
2021/07/15 02:20:19;;;;;;;13.62;12.23;;;;;;;22.04;75.63;99502.48;1747676;81;21059;-70
2021/07/15 02:22:48;;;;;;;14.35;12.37;;;;;;;22.01;75.49;99501.23;1753909;81;21006;-70
2021/07/15 02:25:14;;;;;;;13.43;12.13;;;;;;;22.01;75.46;99502.61;1747089;81;21098;-70
2021/07/15 02:27:45;;;;;;;16.00;12.90;;;;;;;22.03;75.56;99497.55;1653746;84;21516;-70
2021/07/15 02:30:16;;;;;;;14.95;12.30;;;;;;;22.08;75.57;99501.43;1713692;83;21072;-70
2021/07/15 02:32:51;;;;;;;17.85;12.55;;;;;;;22.13;75.59;99492.87;1711949;83;20984;-70
2021/07/15 02:35:18;;;;;;;17.32;13.45;;;;;;;22.17;75.45;99499.33;1723987;83;21623;-70
2021/07/15 02:37:44;;;;;;;17.30;14.10;;;;;;;22.20;75.44;99498.61;1724054;83;21001;-70
2021/07/15 02:40:14;;;;;;;16.97;13.65;;;;;;;22.20;75.40;99510.27;1724968;83;21099;-70
2021/07/15 02:42:42;;;;;;;17.05;12.47;;;;;;;22.22;75.39;99509.33;1716183;83;21391;-70
2021/07/15 02:45:11;;;;;;;16.67;13.38;;;;;;;22.27;75.30;99507.13;1721506;82;21068;-70
2021/07/15 02:47:40;;;;;;;14.15;12.70;;;;;;;22.31;75.13;99514.95;1717641;83;20991;-71
2021/07/15 02:50:07;;;;;;;18.50;13.45;;;;;;;22.33;74.92;99508.47;1723284;83;21091;-70
2021/07/15 02:52:35;;;;;;;17.23;13.40;;;;;;;22.36;74.80;99514.45;1698298;83;21188;-70
2021/07/15 02:55:03;;;;;;;18.35;14.38;;;;;;;22.37;74.78;99517.45;1695978;83;21467;-70
2021/07/15 02:57:53;;;;;;;17.42;14.07;;;;;;;22.34;74.85;99509.27;1712474;83;21016;-70
2021/07/15 03:00:20;;;;;;;16.77;14.75;;;;;;;22.38;74.83;99512.95;1724575;82;21040;-70
2021/07/15 03:03:15;;;;;;;15.20;13.70;;;;;;;22.48;74.65;99512.42;1720194;83;21005;-70
2021/07/15 03:05:50;;;;;;;17.73;14.03;;;;;;;22.54;74.43;99506.02;1698968;83;21579;-70
2021/07/15 03:08:30;;;;;;;18.50;15.10;;;;;;;22.58;74.28;99508.31;1727375;82;20974;-70
2021/07/15 03:10:58;;;;;;;23.05;14.90;;;;;;;22.61;74.27;99513.14;1747578;81;21107;-70
2021/07/15 03:13:25;;;;;;;17.98;14.93;;;;;;;22.62;74.46;99507.25;1726476;82;21040;-70
2021/07/15 03:15:54;;;;;;;17.65;13.90;;;;;;;22.73;74.35;99511.72;1746821;81;21008;-70
2021/07/15 03:18:25;;;;;;;17.05;14.25;;;;;;;22.88;74.19;99510.11;1746006;82;21007;-70
2021/07/15 03:20:51;;;;;;;15.83;14.13;;;;;;;23.01;73.89;99501.89;1739454;82;21540;-71
2021/07/15 03:23:20;;;;;;;17.82;15.03;;;;;;;23.15;73.68;99508.60;1747305;82;21088;-71
2021/07/15 03:25:49;;;;;;;16.12;14.45;;;;;;;23.27;73.53;99514.05;1746887;81;21136;-70
2021/07/15 03:28:19;;;;;;;17.20;14.00;;;;;;;23.39;73.30;99510.33;1742579;82;21422;-71
2021/07/15 03:30:46;;;;;;;14.85;13.20;;;;;;;23.55;72.93;99504.78;1727700;81;21018;-71
2021/07/15 03:33:14;;;;;;;16.42;13.20;;;;;;;23.74;72.51;99507.55;1726519;82;20948;-71
2021/07/15 03:35:41;;;;;;;15.38;13.32;;;;;;;23.91;71.76;99507.73;1746750;81;20994;-71
2021/07/15 03:38:08;;;;;;;15.30;13.18;;;;;;;23.99;71.28;99510.27;1736638;82;21005;-71
2021/07/15 03:40:35;;;;;;;16.10;12.37;;;;;;;24.08;70.62;99511.45;1737210;81;21564;-71
2021/07/15 03:43:02;;;;;;;14.15;12.53;;;;;;;24.18;70.29;99519.23;1700291;83;21017;-71
2021/07/15 03:45:29;;;;;;;13.85;12.07;;;;;;;24.36;69.91;99525.95;1697956;82;21638;-71
2021/07/15 03:47:57;;;;;;;18.00;12.80;;;;;;;24.64;68.73;99521.48;1738316;82;20970;-71
2021/07/15 03:50:27;;;;;;;14.98;12.55;;;;;;;24.64;68.73;99521.48;1740461;81;21086;-71
2021/07/15 03:52:57;;;;;;;15.08;12.88;;;;;;;24.73;68.32;99525.62;1737321;82;21022;-71
2021/07/15 03:55:26;;;;;;;15.15;11.88;;;;;;;24.83;67.93;99526.20;1746931;82;21122;-71
2021/07/15 03:57:52;;;;;;;15.18;11.80;;;;;;;24.90;67.52;99525.77;1737502;82;20970;-71
2021/07/15 04:00:24;;;;;;;16.85;12.15;;;;;;;25.07;66.97;99529.42;1746864;81;21019;-71
2021/07/15 04:02:55;;;;;;;16.32;12.45;;;;;;;25.23;66.66;99520.91;1746872;82;20990;-71
2021/07/15 04:05:22;;;;;;;16.57;11.95;;;;;;;25.35;66.15;99519.31;1746191;81;21044;-71
2021/07/15 04:07:49;;;;;;;14.10;11.57;;;;;;;25.48;65.74;99521.28;1755771;82;20953;-71
2021/07/15 04:10:16;;;;;;;13.72;11.63;;;;;;;25.59;65.47;99525.86;1751996;81;21078;-71
2021/07/15 04:12:42;;;;;;;13.72;11.30;;;;;;;25.75;64.69;99525.08;1746004;82;21041;-71
2021/07/15 04:15:14;;;;;;;18.90;12.03;;;;;;;25.92;64.45;99527.09;1747782;81;21057;-71
2021/07/15 04:17:54;;;;;;;13.48;11.73;;;;;;;26.03;64.18;99523.86;1753078;81;21509;-71
2021/07/15 04:20:25;;;;;;;16.70;12.35;;;;;;;26.13;63.73;99514.81;1752244;81;21061;-71
2021/07/15 04:22:58;;;;;;;12.90;11.40;;;;;;;26.23;63.35;99512.76;1747695;82;21021;-70
2021/07/15 04:25:26;;;;;;;15.53;11.78;;;;;;;26.35;63.69;99506.12;1752840;82;21078;-70
2021/07/15 04:27:57;;;;;;;13.35;11.80;;;;;;;26.50;63.25;99500.28;1735231;82;21087;-69
2021/07/15 04:30:24;;;;;;;13.38;11.57;;;;;;;26.66;62.89;99507.84;1754283;81;21044;-70
2021/07/15 04:32:59;;;;;;;13.95;11.30;;;;;;;26.82;62.67;99499.80;1735715;81;20981;-70
2021/07/15 04:35:27;;;;;;;12.80;11.00;;;;;;;27.05;61.92;99500.41;1755752;81;21638;-70
2021/07/15 04:37:56;;;;;;;13.00;11.25;;;;;;;27.16;61.50;99502.10;1756647;81;20967;-69
2021/07/15 04:40:24;;;;;;;16.35;11.12;;;;;;;27.32;61.64;99500.98;1754824;81;21057;-70
2021/07/15 04:42:55;;;;;;;17.60;10.85;;;;;;;27.52;60.79;99497.58;1743605;82;20998;-71
2021/07/15 04:45:25;;;;;;;14.60;11.25;;;;;;;27.63;60.43;99496.23;1740764;81;21568;-70
2021/07/15 04:47:54;;;;;;;13.10;10.98;;;;;;;27.76;60.04;99506.48;1752695;82;21018;-69
2021/07/15 04:50:25;;;;;;;15.88;10.45;;;;;;;27.86;59.72;99496.73;1699503;82;21586;-70
2021/07/15 04:52:56;;;;;;;11.33;10.18;;;;;;;27.98;59.64;99490.80;1749813;81;20983;-70
2021/07/15 04:55:22;;;;;;;16.30;10.72;;;;;;;28.10;59.26;99492.45;1746741;82;21068;-70
2021/07/15 04:57:51;;;;;;;15.78;10.90;;;;;;;28.23;58.85;99489.52;1743903;82;20998;-70
2021/07/15 05:00:17;;;;;;;11.50;9.95;;;;;;;28.40;59.01;99491.55;1732985;82;21545;-69
2021/07/15 05:02:44;;;;;;;13.78;10.35;;;;;;;28.64;58.32;99490.78;1755186;82;21011;-70
2021/07/15 05:05:13;;;;;;;11.00;9.78;;;;;;;28.82;57.25;99488.03;1753710;81;21300;-70
2021/07/15 05:07:40;;;;;;;15.55;9.90;;;;;;;28.93;56.80;99486.03;1754004;81;21005;-70
2021/07/15 05:10:10;;;;;;;14.53;9.75;;;;;;;29.08;56.67;99493.83;1750804;81;20992;-70
2021/07/15 05:12:38;;;;;;;12.60;9.50;;;;;;;29.26;55.90;99491.84;1752023;81;21030;-69
2021/07/15 05:15:07;;;;;;;15.10;9.05;;;;;;;29.39;55.81;99498.63;1758516;81;21017;-71
2021/07/15 05:17:34;;;;;;;13.58;9.38;;;;;;;29.59;55.74;99491.95;1749302;81;20982;-69
2021/07/15 05:20:05;;;;;;;10.65;9.55;;;;;;;29.80;55.57;99492.48;1702653;81;21015;-71
2021/07/15 05:22:32;;;;;;;10.05;9.05;;;;;;;30.05;54.07;99497.42;1750145;81;20995;-71
2021/07/15 05:25:00;;;;;;;12.10;8.95;;;;;;;30.26;54.25;99500.12;1754615;81;20991;-70
2021/07/15 05:27:27;;;;;;;12.80;9.03;;;;;;;30.43;53.12;99492.85;1755459;82;21058;-71
2021/07/15 05:29:55;;;;;;;12.28;9.03;;;;;;;30.55;53.05;99498.77;1755419;81;21139;-69
2021/07/15 05:32:22;;;;;;;12.55;9.63;;;;;;;30.65;52.63;99501.31;1725978;82;21074;-70
2021/07/15 05:34:49;;;;;;;13.88;8.55;;;;;;;30.77;52.30;99500.02;1755659;82;21054;-69
2021/07/15 05:37:15;;;;;;;14.47;8.65;;;;;;;30.94;52.50;99503.30;1755517;81;21054;-69
2021/07/15 05:39:44;;;;;;;9.33;8.25;;;;;;;31.18;51.78;99500.13;1755953;81;21620;-70
2021/07/15 05:42:11;;;;;;;12.55;8.63;;;;;;;31.30;50.86;99501.80;1755579;81;21565;-70
2021/07/15 05:44:39;;;;;;;12.05;8.15;;;;;;;31.39;50.47;99494.30;1755943;82;21469;-69
2021/07/15 05:47:09;;;;;;;9.88;7.72;;;;;;;31.44;49.87;99500.25;1755560;81;21098;-69
2021/07/15 05:49:36;;;;;;;10.28;8.58;;;;;;;31.49;50.50;99495.59;1755940;82;21454;-69
2021/07/15 05:52:04;;;;;;;13.58;8.85;;;;;;;31.60;50.23;99490.48;1755501;81;21046;-69
2021/07/15 05:54:32;;;;;;;8.65;7.83;;;;;;;31.67;50.46;99487.59;1755777;81;21522;-70
2021/07/15 05:56:59;;;;;;;11.35;8.03;;;;;;;31.85;50.42;99487.55;1755447;81;21098;-70
2021/07/15 05:59:25;;;;;;;11.45;7.85;;;;;;;32.06;49.82;99495.75;1750671;82;21042;-70
2021/07/15 06:01:52;;;;;;;9.73;8.05;;;;;;;32.19;48.94;99490.37;1755414;81;21686;-69
2021/07/15 06:04:18;;;;;;;12.75;7.60;;;;;;;32.28;48.71;99491.23;1749537;82;20994;-69
2021/07/15 06:06:45;;;;;;;13.05;7.87;;;;;;;32.29;48.17;99485.80;1754102;81;21134;-69
2021/07/15 06:09:11;;;;;;;9.55;7.53;;;;;;;32.31;48.21;99487.60;1751894;82;21007;-69
2021/07/15 06:11:40;;;;;;;10.98;6.95;;;;;;;32.42;48.52;99478.36;1753070;81;21093;-69
2021/07/15 06:14:07;;;;;;;10.23;7.15;;;;;;;32.53;47.55;99483.23;1753105;82;20978;-69
2021/07/15 06:16:33;;;;;;;9.65;7.03;;;;;;;32.53;47.87;99477.59;1753102;81;21078;-69
2021/07/15 06:19:01;;;;;;;8.00;6.08;;;;;;;32.56;48.47;99480.35;1730587;82;21060;-69
2021/07/15 06:21:28;;;;;;;8.88;6.80;;;;;;;32.65;48.07;99471.41;1724378;82;21583;-69
2021/07/15 06:23:55;;;;;;;10.10;6.72;;;;;;;32.87;48.08;99476.09;1721743;83;21024;-70
2021/07/15 06:26:22;;;;;;;11.10;6.75;;;;;;;33.02;47.26;99473.98;1739098;81;21126;-69
2021/07/15 06:28:49;;;;;;;9.60;6.47;;;;;;;33.17;46.06;99475.98;1738074;82;21027;-69
2021/07/15 06:31:16;;;;;;;13.55;6.67;;;;;;;33.22;45.91;99474.70;1741715;81;21569;-69
2021/07/15 06:33:42;;;;;;;13.05;6.47;;;;;;;33.29;45.39;99476.78;1753763;82;21011;-69
2021/07/15 06:36:09;;;;;;;10.13;6.47;;;;;;;33.35;45.51;99471.42;1753724;81;21045;-69
2021/07/15 06:38:37;;;;;;;7.40;6.17;;;;;;;33.43;44.62;99471.48;1753581;81;21029;-70
2021/07/15 06:41:06;;;;;;;12.78;6.62;;;;;;;33.49;44.69;99479.62;1753467;81;21503;-67
2021/07/15 06:43:33;;;;;;;10.45;6.30;;;;;;;33.60;45.15;99475.18;1751129;82;20990;-68
2021/07/15 06:45:59;;;;;;;8.48;6.47;;;;;;;33.70;44.68;99469.34;1739600;81;21028;-66
2021/07/15 06:48:27;;;;;;;9.95;6.78;;;;;;;33.72;44.31;99471.14;1721399;83;21518;-68
2021/07/15 06:50:54;;;;;;;9.88;6.47;;;;;;;33.83;45.09;99477.37;1721277;82;21115;-70
2021/07/15 06:53:20;;;;;;;9.00;6.53;;;;;;;33.83;43.45;99466.08;1694954;83;21488;-70
2021/07/15 06:55:46;;;;;;;10.03;6.00;;;;;;;33.84;43.86;99460.59;1721699;82;21055;-68
2021/07/15 06:58:13;;;;;;;10.72;6.90;;;;;;;33.95;43.74;99468.83;1721607;83;21531;-69
2021/07/15 07:00:40;;;;;;;8.60;6.45;;;;;;;34.01;42.85;99467.88;1721546;82;21056;-68
2021/07/15 07:03:06;;;;;;;10.63;6.75;;;;;;;33.99;43.22;99468.95;1721449;83;21067;-68
2021/07/15 07:05:33;;;;;;;9.03;6.33;;;;;;;34.02;43.59;99468.68;1695373;83;21092;-69
2021/07/15 07:07:59;;;;;;;7.50;6.03;;;;;;;34.08;44.00;99465.55;1728316;83;21060;-68
2021/07/15 07:10:25;;;;;;;11.65;6.72;;;;;;;34.18;43.34;99463.73;1729328;82;21678;-69
2021/07/15 07:12:53;;;;;;;9.55;5.67;;;;;;;34.29;43.24;99472.16;1728726;83;21151;-69
2021/07/15 07:15:19;;;;;;;9.45;6.00;;;;;;;34.37;42.42;99464.30;1729347;82;21123;-69
2021/07/15 07:17:46;;;;;;;7.90;6.03;;;;;;;34.33;42.19;99477.09;1729017;83;21079;-69
2021/07/15 07:21:31;;;;;;;7.35;5.90;;;;;;;34.40;42.69;99476.16;1801499;79;22904;-70
2021/07/15 07:23:59;;;;;;;7.17;5.42;;;;;;;34.39;41.92;99473.14;1761032;81;21511;-70
2021/07/15 07:26:26;;;;;;;8.13;5.67;;;;;;;34.46;41.84;99474.39;1753014;82;21015;-71
2021/07/15 07:28:53;;;;;;;7.08;5.05;;;;;;;34.53;41.60;99475.64;1752854;82;21534;-71
2021/07/15 07:31:21;;;;;;;6.67;5.17;;;;;;;34.62;42.10;99478.66;1753071;82;21058;-71
2021/07/15 07:33:48;;;;;;;6.10;5.28;;;;;;;34.84;41.52;99473.30;1752942;81;21557;-71
2021/07/15 07:36:16;;;;;;;7.65;5.53;;;;;;;34.98;40.30;99475.14;1752928;82;21077;-71
2021/07/15 07:38:42;;;;;;;7.75;5.92;;;;;;;35.12;41.52;99477.45;1752997;82;21556;-72
2021/07/15 07:41:09;;;;;;;6.45;4.95;;;;;;;35.14;40.42;99477.83;1752745;82;21067;-72
2021/07/15 07:43:37;;;;;;;7.72;4.70;;;;;;;35.15;40.67;99477.36;1753336;82;21067;-73
2021/07/15 07:46:04;;;;;;;5.80;4.17;;;;;;;35.17;39.95;99478.34;1752882;82;21031;-72
2021/07/15 07:48:31;;;;;;;7.75;4.62;;;;;;;35.06;39.25;99477.17;1753064;82;21580;-72
2021/07/15 07:51:00;;;;;;;8.23;4.80;;;;;;;34.89;38.87;99474.19;1752895;82;21585;-72
2021/07/15 07:53:27;;;;;;;7.50;4.62;;;;;;;34.62;38.84;99480.08;1753208;82;21035;-71
2021/07/15 07:55:54;;;;;;;7.35;4.50;;;;;;;34.38;38.73;99475.17;1752873;81;21069;-71
2021/07/15 07:58:21;;;;;;;7.47;4.37;;;;;;;34.23;39.69;99480.16;1753156;82;21063;-72
2021/07/15 08:00:49;;;;;;;6.95;4.67;;;;;;;34.11;39.65;99486.46;1752893;82;21070;-72
2021/07/15 08:03:17;;;;;;;8.15;4.40;;;;;;;34.11;39.37;99484.44;1753034;82;20976;-71
2021/07/15 08:05:47;;;;;;;8.50;4.47;;;;;;;34.27;39.89;99481.67;1752876;82;21059;-72
2021/07/15 08:08:18;;;;;;;8.50;4.95;;;;;;;34.20;39.28;99481.83;1753120;82;21404;-71
2021/07/15 08:10:44;;;;;;;8.28;4.50;;;;;;;34.08;40.20;99481.69;1753131;82;21573;-72
2021/07/15 08:13:11;;;;;;;7.95;4.97;;;;;;;34.21;39.11;99484.05;1753381;82;21030;-71
2021/07/15 08:15:37;;;;;;;11.65;5.60;;;;;;;34.19;39.86;99484.47;1752898;82;21601;-71
2021/07/15 08:18:05;;;;;;;7.40;4.78;;;;;;;34.29;40.93;99484.08;1753074;81;21031;-71
2021/07/15 08:20:32;;;;;;;10.30;5.08;;;;;;;34.46;39.59;99493.56;1753302;81;21577;-71
2021/07/15 08:22:59;;;;;;;7.12;5.28;;;;;;;34.41;39.88;99487.62;1753556;82;21050;-71
2021/07/15 08:25:26;;;;;;;8.25;5.10;;;;;;;34.42;39.20;99487.80;1753592;82;21546;-72
2021/07/15 08:27:53;;;;;;;6.10;4.67;;;;;;;34.30;37.97;99479.99;1753896;82;21414;-71
2021/07/15 08:30:20;;;;;;;8.73;4.65;;;;;;;34.18;38.40;99482.10;1753606;82;21122;-73
2021/07/15 08:32:46;;;;;;;8.75;4.75;;;;;;;34.08;37.57;99478.25;1753582;82;21405;-71
2021/07/15 08:35:13;;;;;;;10.00;5.50;;;;;;;34.08;38.50;99474.63;1753127;82;21071;-72
2021/07/15 08:37:39;;;;;;;7.37;5.03;;;;;;;34.12;37.86;99472.53;1753514;82;21029;-72
2021/07/15 08:40:07;;;;;;;8.80;5.20;;;;;;;34.13;38.29;99472.10;1753305;82;21540;-72
2021/07/15 08:42:36;;;;;;;9.65;5.75;;;;;;;34.13;37.94;99468.48;1753419;82;21063;-71
2021/07/15 08:45:06;;;;;;;9.13;5.30;;;;;;;34.08;38.02;99476.05;1753227;82;21105;-71
2021/07/15 08:47:38;;;;;;;9.68;5.62;;;;;;;33.98;38.26;99471.58;1752935;82;21031;-73
2021/07/15 08:50:05;;;;;;;9.15;5.53;;;;;;;34.12;38.49;99464.83;1753174;82;21071;-68
2021/07/15 08:52:33;;;;;;;8.38;5.33;;;;;;;34.24;38.84;99467.63;1753415;82;20967;-70
2021/07/15 08:55:05;;;;;;;8.43;4.67;;;;;;;34.29;38.02;99467.92;1752966;82;21051;-69
2021/07/15 08:57:29;;;;;;;6.78;4.65;;;;;;;34.38;37.36;99457.41;1752757;82;20992;-70
2021/07/15 08:59:55;;;;;;;7.92;4.78;;;;;;;34.33;37.46;99459.37;1753213;82;21054;-71
2021/07/15 09:02:23;;;;;;;5.55;4.15;;;;;;;34.14;37.28;99467.26;1753099;82;21561;-72
2021/07/15 09:04:50;;;;;;;7.05;4.85;;;;;;;33.97;37.63;99454.48;1753253;82;21073;-70
2021/07/15 09:07:16;;;;;;;6.60;4.78;;;;;;;33.91;38.61;99460.44;1753388;82;21007;-72
2021/07/15 09:09:45;;;;;;;8.73;4.70;;;;;;;34.11;38.37;99458.22;1753207;82;21031;-72
2021/07/15 09:12:13;;;;;;;9.28;4.60;;;;;;;34.34;37.49;99460.32;1753384;82;21390;-71
2021/07/15 09:14:51;;;;;;;9.03;4.85;;;;;;;34.63;37.65;99459.06;1753290;82;21019;-72
2021/07/15 09:17:33;;;;;;;6.78;5.10;;;;;;;34.84;37.16;99455.71;1753308;82;21007;-72
2021/07/15 09:20:03;;;;;;;9.15;5.10;;;;;;;35.05;37.77;99454.36;1750669;81;21146;-71
2021/07/15 09:22:29;;;;;;;8.13;5.08;;;;;;;35.01;36.99;99447.20;1739442;82;21000;-71
2021/07/15 09:25:01;;;;;;;7.95;4.55;;;;;;;34.96;37.06;99447.14;1739484;82;21083;-71
2021/07/15 09:27:29;;;;;;;9.98;5.15;;;;;;;34.97;35.70;99446.68;1739413;82;21004;-71
2021/07/15 09:30:11;;;;;;;7.65;4.55;;;;;;;35.02;35.37;99447.39;1739264;82;21519;-71
2021/07/15 09:32:58;;;;;;;5.67;4.10;;;;;;;35.03;35.36;99451.20;1739125;82;21074;-71
2021/07/15 09:35:39;;;;;;;11.83;5.25;;;;;;;35.03;34.40;99442.71;1739210;82;21589;-71
2021/07/15 09:38:25;;;;;;;8.33;4.62;;;;;;;35.04;35.96;99442.87;1739222;82;21059;-72
2021/07/15 09:41:04;;;;;;;8.85;4.75;;;;;;;34.87;35.90;99440.69;1739241;82;21044;-72
2021/07/15 09:43:37;;;;;;;8.35;4.72;;;;;;;34.93;36.56;99447.39;1738796;82;21435;-72
2021/07/15 09:46:17;;;;;;;6.40;5.25;;;;;;;35.07;36.18;99441.20;1739150;82;21055;-71
2021/07/15 09:49:01;;;;;;;7.60;4.72;;;;;;;35.20;35.77;99441.47;1739458;82;21044;-73
2021/07/15 09:51:41;;;;;;;7.22;4.10;;;;;;;35.30;35.32;99433.31;1739483;82;21047;-72
2021/07/15 09:54:08;;;;;;;8.28;4.60;;;;;;;35.44;35.05;99443.44;1739296;82;21136;-73
2021/07/15 09:56:45;;;;;;;6.75;5.00;;;;;;;35.56;35.14;99433.41;1736312;82;21565;-70
2021/07/15 09:59:11;;;;;;;9.15;5.00;;;;;;;35.56;33.40;99434.83;1671965;85;21138;-72
2021/07/15 10:01:47;;;;;;;7.15;4.65;;;;;;;35.46;34.83;99435.31;1680706;84;21099;-73
2021/07/15 10:04:23;;;;;;;44.77;31.97;;;;;;;35.51;34.35;99432.53;1692007;84;21126;-73
2021/07/15 10:06:50;;;;;;;11.38;8.65;;;;;;;35.61;33.82;99432.25;1674776;84;21086;-70
2021/07/15 10:09:26;;;;;;;20.48;13.62;;;;;;;35.61;33.17;99435.09;1697158;84;21146;-72
2021/07/15 10:11:56;;;;;;;6.13;5.20;;;;;;;35.58;34.03;99438.79;1682259;84;21596;-72
2021/07/15 10:14:40;;;;;;;9.13;4.78;;;;;;;35.60;32.75;99431.27;1683270;84;21090;-72
2021/07/15 10:17:08;;;;;;;6.70;4.08;;;;;;;35.63;32.29;99426.95;1686228;84;21031;-73
2021/07/15 10:19:35;;;;;;;7.15;4.55;;;;;;;35.69;31.51;99427.98;1678874;84;21590;-71
2021/07/15 10:22:08;;;;;;;5.53;4.58;;;;;;;35.74;31.55;99421.78;1677250;84;21620;-71
2021/07/15 10:24:34;;;;;;;7.47;4.42;;;;;;;35.70;33.03;99423.92;1690198;84;21085;-73
2021/07/15 10:27:06;;;;;;;6.50;4.72;;;;;;;35.65;31.31;99430.13;1656620;86;21074;-73
2021/07/15 10:29:34;;;;;;;6.58;4.25;;;;;;;35.65;32.15;99424.45;1696556;84;21062;-74
2021/07/15 10:32:06;;;;;;;7.65;4.22;;;;;;;35.68;32.43;99419.92;1709956;84;21030;-70
2021/07/15 10:34:33;;;;;;;6.17;4.50;;;;;;;35.57;31.42;99397.56;1662739;84;21090;-71
2021/07/15 10:37:02;;;;;;;8.45;4.37;;;;;;;35.73;30.24;99420.19;1714496;84;21117;-74
2021/07/15 10:39:30;;;;;;;8.10;4.50;;;;;;;35.77;31.27;99415.22;1689112;84;21051;-73
2021/07/15 10:41:59;;;;;;;8.35;4.25;;;;;;;35.79;30.85;99412.72;1656707;86;21066;-71
2021/07/15 10:44:28;;;;;;;9.78;4.05;;;;;;;35.86;30.84;99413.91;1671849;85;21580;-72
2021/07/15 10:46:57;;;;;;;9.08;5.33;;;;;;;35.94;31.37;99415.91;1678236;84;21055;-72
2021/07/15 10:49:24;;;;;;;7.12;4.17;;;;;;;35.91;31.10;99413.98;1668222;85;21110;-73
2021/07/15 10:51:54;;;;;;;7.53;4.20;;;;;;;35.89;30.51;99411.59;1697266;84;21042;-70
2021/07/15 10:54:22;;;;;;;6.15;3.92;;;;;;;35.84;30.55;99411.38;1676194;85;21067;-70
2021/07/15 10:56:51;;;;;;;8.10;6.10;;;;;;;35.87;29.79;99410.47;1703375;84;21078;-70
2021/07/15 10:59:31;;;;;;;6.30;4.12;;;;;;;35.82;28.90;99409.59;1674007;86;21089;-73
2021/07/15 11:02:00;;;;;;;11.90;8.48;;;;;;;35.77;30.04;99407.34;1685891;85;21070;-73
2021/07/15 11:04:39;;;;;;;10.18;5.50;;;;;;;35.86;30.60;99406.03;1673265;86;21766;-73
2021/07/15 11:07:34;;;;;;;9.20;6.42;;;;;;;35.98;30.63;99406.69;1676725;85;21078;-70
2021/07/15 11:10:25;;;;;;;7.80;5.17;;;;;;;36.07;31.41;99401.13;1681646;84;21131;-73
2021/07/15 11:13:06;;;;;;;15.43;9.30;;;;;;;35.85;29.46;99393.91;1703804;84;21531;-73
2021/07/15 11:15:55;;;;;;;16.12;9.23;;;;;;;35.80;30.69;99397.32;1703722;84;21041;-70
2021/07/15 11:18:54;;;;;;;7.28;5.50;;;;;;;35.87;30.78;99400.55;1694065;84;21492;-71
2021/07/15 11:21:32;;;;;;;6.03;4.33;;;;;;;35.86;30.64;99394.09;1674321;84;21148;-72
2021/07/15 11:24:09;;;;;;;7.17;4.78;;;;;;;35.86;30.95;99387.02;1708937;84;21864;-73
2021/07/15 11:26:43;;;;;;;6.80;4.22;;;;;;;35.98;32.69;99390.31;1725637;82;21044;-70
2021/07/15 11:29:12;;;;;;;6.53;4.08;;;;;;;36.06;30.03;99383.19;1733556;82;21079;-70
2021/07/15 11:31:53;;;;;;;6.30;4.37;;;;;;;36.08;29.58;99382.13;1721377;82;21079;-70
2021/07/15 11:34:40;;;;;;;9.15;4.55;;;;;;;35.97;30.32;99383.05;1720757;82;21558;-70
2021/07/15 11:37:35;;;;;;;7.53;4.20;;;;;;;35.91;29.94;99382.22;1708181;82;21138;-72
2021/07/15 11:40:08;;;;;;;8.05;4.20;;;;;;;35.91;31.50;99372.92;1709743;84;21652;-71